createdAt,value
2017-09-15T00:01:30.346Z,95.40
2017-09-15T00:03:56.720Z,94.90
2017-09-15T00:06:23.059Z,95.20
2017-09-15T00:08:49.407Z,94.90
2017-09-15T00:11:15.689Z,95.20
2017-09-15T00:13:42.751Z,95.00
2017-09-15T00:16:09.048Z,95.00
2017-09-15T00:18:36.167Z,95.10
2017-09-15T00:21:02.527Z,95.10
2017-09-15T00:23:29.558Z,95.70
2017-09-15T00:25:56.623Z,95.80
2017-09-15T00:28:23.032Z,95.80
2017-09-15T00:30:49.393Z,96.10
2017-09-15T00:33:16.429Z,96.40
2017-09-15T00:35:42.745Z,96.30
2017-09-15T00:38:09.097Z,96.50
2017-09-15T00:40:36.164Z,96.50
2017-09-15T00:43:03.252Z,96.50
2017-09-15T00:45:29.520Z,96.50
2017-09-15T00:47:55.844Z,96.40
2017-09-15T00:50:22.135Z,96.20
2017-09-15T00:52:48.424Z,96.10
2017-09-15T00:55:15.476Z,96.30
2017-09-15T00:57:42.492Z,95.90
2017-09-15T01:00:08.809Z,95.90
2017-09-15T01:02:35.127Z,95.80
2017-09-15T01:05:01.440Z,95.80
2017-09-15T01:07:27.872Z,95.90
2017-09-15T01:09:54.274Z,96.00
2017-09-15T01:12:21.312Z,95.70
2017-09-15T01:14:48.341Z,95.60
2017-09-15T01:17:14.635Z,95.60
2017-09-15T01:19:40.924Z,95.40
2017-09-15T01:22:07.249Z,95.40
2017-09-15T01:24:34.272Z,95.50
2017-09-15T01:27:00.603Z,95.40
2017-09-15T01:29:26.960Z,95.60
2017-09-15T01:31:53.996Z,95.50
2017-09-15T01:34:20.308Z,95.40
2017-09-15T01:36:46.685Z,95.50
2017-09-15T01:39:13.062Z,95.50
2017-09-15T01:41:39.369Z,95.60
2017-09-15T01:44:05.695Z,95.80
2017-09-15T01:46:31.979Z,96.60
2017-09-15T01:48:59.053Z,97.00
2017-09-15T01:51:25.356Z,97.00
2017-09-15T01:53:52.449Z,97.70
2017-09-15T01:56:18.751Z,97.70
2017-09-15T01:58:45.231Z,97.60
2017-09-15T02:01:11.521Z,97.80
2017-09-15T02:03:38.668Z,98.80
2017-09-15T02:06:05.007Z,98.80
2017-09-15T02:08:31.327Z,98.50
2017-09-15T02:10:57.665Z,98.60
2017-09-15T02:13:23.928Z,99.30
2017-09-15T02:15:50.234Z,99.90
2017-09-15T02:18:16.558Z,99.90
2017-09-15T02:20:42.905Z,99.90
2017-09-15T02:23:09.259Z,99.90
2017-09-15T02:25:35.555Z,99.70
2017-09-15T02:28:01.868Z,99.20
2017-09-15T02:30:28.943Z,97.40
2017-09-15T02:32:55.259Z,97.40
2017-09-15T02:35:21.573Z,96.60
2017-09-15T02:37:48.674Z,96.70
2017-09-15T02:40:15.028Z,96.60
2017-09-15T02:42:42.097Z,96.50
2017-09-15T02:45:09.163Z,96.50
2017-09-15T02:47:35.471Z,96.40
2017-09-15T02:50:01.881Z,96.20
2017-09-15T02:52:28.208Z,95.80
2017-09-15T02:54:55.304Z,95.90
2017-09-15T02:57:21.616Z,95.90
2017-09-15T02:59:48.620Z,96.20
2017-09-15T03:02:14.927Z,96.20
2017-09-15T03:04:41.231Z,96.20
2017-09-15T03:07:08.312Z,96.40
2017-09-15T03:09:34.599Z,96.40
2017-09-15T03:12:01.740Z,96.10
2017-09-15T03:14:35.987Z,95.90
2017-09-15T03:17:02.287Z,95.90
2017-09-15T03:19:29.291Z,95.90
2017-09-15T03:21:55.654Z,95.90
2017-09-15T03:24:22.128Z,95.50
2017-09-15T03:26:48.483Z,95.10
2017-09-15T03:29:14.779Z,94.90
2017-09-15T03:31:41.090Z,94.60
2017-09-15T03:34:08.180Z,94.30
2017-09-15T03:36:34.484Z,94.30
2017-09-15T03:39:00.788Z,94.70
2017-09-15T03:41:27.111Z,94.90
2017-09-15T03:43:53.427Z,94.70
2017-09-15T03:46:19.782Z,93.80
2017-09-15T03:48:46.811Z,93.60
2017-09-15T03:51:13.129Z,93.30
2017-09-15T03:53:39.444Z,93.60
2017-09-15T03:56:05.799Z,93.50
2017-09-15T03:58:32.154Z,93.60
2017-09-15T04:00:58.469Z,93.90
2017-09-15T04:03:25.519Z,93.50
2017-09-15T04:05:52.018Z,93.40
2017-09-15T04:08:18.336Z,93.80
2017-09-15T04:10:44.636Z,93.90
2017-09-15T04:13:11.800Z,93.40
2017-09-15T04:15:38.178Z,93.40
2017-09-15T04:18:04.488Z,93.10
2017-09-15T04:20:30.779Z,93.20
2017-09-15T04:22:57.876Z,93.30
2017-09-15T04:25:24.378Z,93.30
2017-09-15T04:27:50.711Z,93.80
2017-09-15T04:30:16.996Z,93.30
2017-09-15T04:32:43.312Z,93.60
2017-09-15T04:35:09.627Z,94.10
2017-09-15T04:37:35.972Z,94.30
2017-09-15T04:40:02.281Z,94.50
2017-09-15T04:42:28.657Z,94.70
2017-09-15T04:44:55.699Z,95.00
2017-09-15T04:47:22.047Z,94.90
2017-09-15T04:49:49.092Z,95.40
2017-09-15T04:52:16.160Z,95.30
2017-09-15T04:54:42.475Z,95.30
2017-09-15T04:57:09.759Z,96.00
2017-09-15T04:59:36.179Z,96.00
2017-09-15T05:02:02.528Z,96.30
2017-09-15T05:04:28.859Z,96.50
2017-09-15T05:06:55.191Z,96.60
2017-09-15T05:09:21.560Z,96.50
2017-09-15T05:11:48.627Z,96.70
2017-09-15T05:14:15.693Z,96.60
2017-09-15T05:16:41.996Z,96.60
2017-09-15T05:19:09.091Z,96.30
2017-09-15T05:21:35.412Z,96.20
2017-09-15T05:24:01.956Z,96.10
2017-09-15T05:26:28.340Z,96.10
2017-09-15T05:28:55.458Z,95.30
2017-09-15T05:31:21.891Z,95.20
2017-09-15T05:33:48.273Z,94.80
2017-09-15T05:36:14.619Z,94.70
2017-09-15T05:38:40.936Z,94.60
2017-09-15T05:41:07.262Z,94.60
2017-09-15T05:43:33.556Z,94.40
2017-09-15T05:45:59.872Z,94.00
2017-09-15T05:48:26.194Z,93.30
2017-09-15T05:50:52.516Z,93.30
2017-09-15T05:53:18.845Z,93.10
2017-09-15T05:55:45.148Z,92.70
2017-09-15T05:58:11.469Z,92.50
2017-09-15T06:00:38.555Z,91.70
2017-09-15T06:03:04.880Z,91.70
2017-09-15T06:05:31.185Z,91.10
2017-09-15T06:07:57.516Z,90.90
2017-09-15T06:10:23.877Z,90.90
2017-09-15T06:12:50.197Z,91.00
2017-09-15T06:15:16.578Z,91.00
2017-09-15T06:17:43.952Z,90.30
2017-09-15T06:20:11.159Z,90.00
2017-09-15T06:22:37.524Z,90.00
2017-09-15T06:25:04.595Z,89.30
2017-09-15T06:27:30.900Z,89.30
2017-09-15T06:29:57.984Z,89.10
2017-09-15T06:32:24.283Z,89.00
2017-09-15T06:34:51.596Z,89.40
2017-09-15T06:37:17.952Z,89.40
2017-09-15T06:39:44.260Z,89.70
2017-09-15T06:42:10.558Z,90.00
2017-09-15T06:44:36.912Z,88.80
2017-09-15T06:47:03.269Z,88.20
2017-09-15T06:49:29.627Z,87.50
2017-09-15T06:51:56.678Z,87.60
2017-09-15T06:54:23.740Z,87.00
2017-09-15T06:56:50.047Z,87.00
2017-09-15T06:59:17.139Z,83.50
2017-09-15T07:01:43.480Z,83.40
2017-09-15T07:04:09.898Z,82.70
2017-09-15T07:06:36.195Z,82.00
2017-09-15T07:09:03.266Z,81.30
2017-09-15T07:11:29.788Z,81.30
2017-09-15T07:13:56.277Z,81.30
2017-09-15T07:16:22.607Z,81.10
2017-09-15T07:18:48.897Z,80.10
2017-09-15T07:21:15.301Z,80.20
2017-09-15T07:23:42.385Z,80.10
2017-09-15T07:26:08.723Z,80.10
2017-09-15T07:28:35.025Z,80.00
2017-09-15T07:31:01.325Z,79.10
2017-09-15T07:33:28.568Z,77.60
2017-09-15T07:35:54.867Z,77.60
2017-09-15T07:38:21.184Z,77.10
2017-09-15T07:40:47.504Z,75.90
2017-09-15T07:43:13.824Z,75.40
2017-09-15T07:45:40.137Z,74.60
2017-09-15T07:48:07.228Z,73.80
2017-09-15T07:50:33.553Z,73.80
2017-09-15T07:52:59.874Z,73.90
2017-09-15T07:55:26.194Z,72.60
2017-09-15T07:57:52.515Z,72.10
2017-09-15T08:00:19.605Z,71.60
2017-09-15T08:02:45.964Z,71.50
2017-09-15T08:05:12.292Z,68.70
2017-09-15T08:07:38.620Z,68.90
2017-09-15T08:10:04.936Z,67.70
2017-09-15T08:12:31.265Z,65.50
2017-09-15T08:14:57.581Z,64.90
2017-09-15T08:17:23.907Z,66.20
2017-09-15T08:19:50.213Z,66.10
2017-09-15T08:22:16.532Z,65.80
2017-09-15T08:24:43.594Z,64.10
2017-09-15T08:27:09.912Z,64.10
2017-09-15T08:29:37.004Z,64.10
2017-09-15T08:32:03.350Z,64.10
2017-09-15T08:34:29.756Z,63.70
2017-09-15T08:36:56.049Z,64.40
2017-09-15T08:39:23.152Z,63.60
2017-09-15T08:41:49.517Z,63.60
2017-09-15T08:44:16.577Z,64.70
2017-09-15T08:46:43.652Z,64.10
2017-09-15T08:49:10.748Z,65.20
2017-09-15T08:51:37.144Z,65.20
2017-09-15T08:54:03.536Z,64.60
2017-09-15T08:56:30.594Z,63.50
2017-09-15T08:58:56.906Z,63.50
2017-09-15T09:01:23.941Z,63.00
2017-09-15T09:03:50.278Z,63.60
2017-09-15T09:06:17.311Z,64.10
2017-09-15T09:08:43.648Z,64.10
2017-09-15T09:11:10.155Z,63.50
2017-09-15T09:13:36.485Z,62.50
2017-09-15T09:16:02.873Z,63.40
2017-09-15T09:18:29.156Z,62.60
2017-09-15T09:20:55.504Z,60.20
2017-09-15T09:23:21.792Z,58.10
2017-09-15T09:25:48.093Z,56.80
2017-09-15T09:28:14.384Z,54.60
2017-09-15T09:30:40.670Z,53.00
2017-09-15T09:33:06.984Z,50.90
2017-09-15T09:35:33.276Z,50.30
2017-09-15T09:37:59.643Z,50.90
2017-09-15T09:40:26.085Z,51.20
2017-09-15T09:42:52.437Z,50.90
2017-09-15T09:45:18.718Z,52.30
2017-09-15T09:47:45.780Z,50.60
2017-09-15T09:50:12.157Z,50.50
2017-09-15T09:52:38.460Z,52.20
2017-09-15T09:55:04.743Z,52.60
2017-09-15T09:57:31.104Z,52.20
2017-09-15T09:59:57.458Z,52.40
2017-09-15T10:02:23.860Z,52.30
2017-09-15T10:04:50.363Z,52.70
2017-09-15T10:07:18.168Z,52.90
2017-09-15T10:09:44.517Z,52.80
2017-09-15T10:12:10.826Z,54.60
2017-09-15T10:14:37.102Z,55.60
2017-09-15T10:17:03.453Z,56.50
2017-09-15T10:19:29.756Z,56.10
2017-09-15T10:21:56.193Z,57.00
2017-09-15T10:24:22.520Z,57.10
2017-09-15T10:26:48.831Z,56.70
2017-09-15T10:29:15.156Z,56.20
2017-09-15T10:31:41.479Z,56.00
2017-09-15T10:34:07.783Z,57.00
2017-09-15T10:36:34.842Z,56.70
2017-09-15T10:39:02.075Z,56.40
2017-09-15T10:41:29.145Z,57.30
2017-09-15T10:43:55.504Z,57.20
2017-09-15T10:46:21.897Z,57.70
2017-09-15T10:48:48.971Z,54.60
2017-09-15T10:51:15.812Z,54.60
2017-09-15T10:53:42.118Z,54.60
2017-09-15T10:56:09.171Z,52.90
2017-09-15T10:58:45.983Z,50.60
2017-09-15T11:01:12.302Z,50.60
2017-09-15T11:03:38.647Z,51.70
2017-09-15T11:06:04.980Z,50.60
2017-09-15T11:08:31.297Z,52.10
2017-09-15T11:10:57.805Z,51.50
2017-09-15T11:13:24.865Z,50.80
2017-09-15T11:15:51.601Z,50.80
2017-09-15T11:18:18.044Z,51.20
2017-09-15T11:20:44.401Z,50.90
2017-09-15T11:23:11.035Z,50.90
2017-09-15T11:25:37.641Z,51.50
2017-09-15T11:28:04.024Z,52.20
2017-09-15T11:30:30.329Z,51.50
2017-09-15T11:32:56.679Z,51.70
2017-09-15T11:35:23.042Z,51.70
2017-09-15T11:37:49.373Z,51.80
2017-09-15T11:40:16.751Z,51.90
2017-09-15T11:42:43.048Z,51.90
2017-09-15T11:45:09.372Z,52.00
2017-09-15T11:47:36.412Z,52.50
2017-09-15T11:50:02.712Z,52.60
2017-09-15T11:52:29.080Z,52.90
2017-09-15T11:54:56.268Z,52.80
2017-09-15T11:57:22.609Z,53.30
2017-09-15T11:59:48.928Z,54.50
2017-09-15T12:02:15.214Z,53.80
2017-09-15T12:04:41.523Z,54.60
2017-09-15T12:07:07.832Z,55.60
2017-09-15T12:09:34.116Z,55.40
2017-09-15T12:12:00.461Z,55.20
2017-09-15T12:14:27.504Z,54.30
2017-09-15T12:16:54.563Z,54.00
2017-09-15T12:19:21.296Z,54.00
2017-09-15T12:21:48.345Z,54.20
2017-09-15T12:24:15.437Z,54.90
2017-09-15T12:26:41.777Z,54.90
2017-09-15T12:29:08.173Z,53.60
2017-09-15T12:31:34.514Z,53.20
2017-09-15T12:34:00.886Z,54.10
2017-09-15T12:36:28.786Z,54.60
2017-09-15T12:38:55.813Z,57.40
2017-09-15T12:41:22.317Z,57.90
2017-09-15T12:43:48.596Z,59.60
2017-09-15T12:46:15.646Z,63.30
2017-09-15T12:48:42.717Z,66.10
2017-09-15T12:51:09.061Z,66.10
2017-09-15T12:53:35.360Z,65.80
2017-09-15T12:56:01.934Z,68.30
2017-09-15T12:58:28.256Z,66.30
2017-09-15T13:00:54.548Z,67.00
2017-09-15T13:03:20.865Z,66.40
2017-09-15T13:05:48.164Z,62.20
2017-09-15T13:08:14.488Z,62.20
2017-09-15T13:10:40.837Z,61.90
2017-09-15T13:13:07.116Z,60.90
2017-09-15T13:15:34.364Z,58.30
2017-09-15T13:18:00.704Z,58.30
2017-09-15T13:20:27.928Z,55.20
2017-09-15T13:22:54.476Z,55.00
2017-09-15T13:25:21.535Z,56.90
2017-09-15T13:27:48.600Z,57.90
2017-09-15T13:30:14.955Z,57.90
2017-09-15T13:32:41.286Z,57.30
2017-09-15T13:35:07.784Z,56.90
2017-09-15T13:37:34.096Z,57.10
2017-09-15T13:40:01.208Z,59.00
2017-09-15T13:42:29.036Z,58.20
2017-09-15T13:44:55.633Z,58.20
2017-09-15T13:47:22.040Z,54.70
2017-09-15T13:49:55.367Z,55.90
2017-09-15T13:52:22.234Z,54.60
2017-09-15T13:54:48.580Z,54.50
2017-09-15T13:57:14.881Z,55.60
2017-09-15T13:59:41.962Z,55.00
2017-09-15T14:02:08.262Z,54.90
2017-09-15T14:04:35.354Z,55.90
2017-09-15T14:07:01.743Z,55.90
2017-09-15T14:09:28.781Z,58.60
2017-09-15T14:11:55.895Z,57.70
2017-09-15T14:14:23.973Z,57.70
2017-09-15T14:16:50.297Z,57.00
2017-09-15T14:19:16.831Z,56.90
2017-09-15T14:21:43.212Z,58.30
2017-09-15T14:24:09.592Z,57.00
2017-09-15T14:26:35.953Z,57.10
2017-09-15T14:29:02.328Z,58.10
2017-09-15T14:31:28.663Z,59.40
2017-09-15T14:33:57.697Z,59.30
2017-09-15T14:36:24.072Z,59.90
2017-09-15T14:38:50.389Z,60.40
2017-09-15T14:41:17.452Z,62.60
2017-09-15T14:43:43.784Z,61.90
2017-09-15T14:46:10.097Z,62.40
2017-09-15T14:48:36.476Z,62.60
2017-09-15T14:51:02.776Z,59.50
2017-09-15T14:53:29.129Z,59.30
2017-09-15T14:55:55.440Z,59.10
2017-09-15T14:58:21.735Z,58.50
2017-09-15T15:00:48.068Z,58.50
2017-09-15T15:03:15.281Z,57.40
2017-09-15T15:05:41.608Z,57.80
2017-09-15T15:08:07.901Z,57.10
2017-09-15T15:10:34.263Z,57.20
2017-09-15T15:13:00.580Z,56.80
2017-09-15T15:15:26.892Z,57.20
2017-09-15T15:17:53.220Z,56.90
2017-09-15T15:20:19.581Z,55.70
2017-09-15T15:22:45.906Z,54.80
2017-09-15T15:25:12.214Z,54.80
2017-09-15T15:27:38.541Z,53.80
2017-09-15T15:30:04.859Z,54.20
2017-09-15T15:32:31.925Z,53.00
2017-09-15T15:34:58.254Z,53.00
2017-09-15T15:37:24.626Z,53.40
2017-09-15T15:39:51.240Z,55.00
2017-09-15T15:42:17.552Z,56.90
2017-09-15T15:44:43.833Z,58.50
2017-09-15T15:47:10.337Z,59.20
2017-09-15T15:49:36.631Z,60.20
2017-09-15T15:52:02.960Z,61.40
2017-09-15T15:54:30.036Z,62.70
2017-09-15T15:56:56.461Z,62.80
2017-09-15T15:59:22.764Z,62.80
2017-09-15T16:01:50.044Z,63.70
2017-09-15T16:04:16.372Z,63.70
2017-09-15T16:06:45.092Z,62.30
2017-09-15T16:09:11.573Z,63.00
2017-09-15T16:11:38.665Z,64.70
2017-09-15T16:14:05.024Z,64.70
2017-09-15T16:16:31.364Z,66.00
2017-09-15T16:18:59.224Z,69.30
2017-09-15T16:21:25.550Z,69.30
2017-09-15T16:23:52.153Z,69.00
2017-09-15T16:26:18.465Z,68.80
2017-09-15T16:28:44.808Z,69.50
2017-09-15T16:31:11.143Z,70.40
2017-09-15T16:33:37.496Z,71.10
2017-09-15T16:36:03.973Z,71.50
2017-09-15T16:38:37.154Z,70.00
2017-09-15T16:41:10.350Z,70.60
2017-09-15T16:43:43.649Z,71.90
2017-09-15T16:46:16.773Z,71.90
2017-09-15T16:48:49.104Z,71.90
2017-09-15T16:51:16.173Z,73.40
2017-09-15T16:53:42.477Z,73.30
2017-09-15T16:56:08.805Z,74.20
2017-09-15T16:58:35.136Z,74.90
2017-09-15T17:01:01.629Z,75.40
2017-09-15T17:03:28.029Z,75.30
2017-09-15T17:05:54.520Z,75.90
2017-09-15T17:08:20.833Z,76.30
2017-09-15T17:10:47.184Z,77.50
2017-09-15T17:13:13.484Z,77.90
2017-09-15T17:15:39.844Z,78.20
2017-09-15T17:18:06.181Z,78.50
2017-09-15T17:20:32.514Z,79.40
2017-09-15T17:23:00.353Z,80.30
2017-09-15T17:25:26.675Z,80.30
2017-09-15T17:27:53.003Z,80.50
2017-09-15T17:30:19.309Z,80.90
2017-09-15T17:32:45.700Z,82.00
2017-09-15T17:35:12.064Z,83.10
2017-09-15T17:37:38.478Z,83.90
2017-09-15T17:40:04.831Z,84.90
2017-09-15T17:42:31.195Z,85.90
2017-09-15T17:44:57.542Z,87.30
2017-09-15T17:47:23.842Z,87.80
2017-09-15T17:49:50.196Z,89.10
2017-09-15T17:52:16.466Z,90.30
2017-09-15T17:54:43.536Z,91.20
2017-09-15T17:57:09.867Z,91.20
2017-09-15T17:59:36.312Z,91.90
2017-09-15T18:02:02.656Z,92.50
2017-09-15T18:04:29.020Z,93.10
2017-09-15T18:06:55.324Z,93.80
2017-09-15T18:09:21.774Z,94.50
2017-09-15T18:11:48.172Z,95.20
2017-09-15T18:14:14.488Z,95.40
2017-09-15T18:16:40.830Z,95.50
2017-09-15T18:19:07.176Z,95.80
2017-09-15T18:21:33.508Z,96.10
2017-09-15T18:23:59.820Z,96.00
2017-09-15T18:26:26.127Z,96.30
2017-09-15T18:28:52.500Z,96.30
2017-09-15T18:31:18.888Z,96.60
2017-09-15T18:33:45.258Z,96.60
2017-09-15T18:36:11.647Z,96.70
2017-09-15T18:38:38.726Z,97.30
2017-09-15T18:41:04.997Z,97.30
2017-09-15T18:43:31.308Z,97.80
2017-09-15T18:45:57.647Z,97.70
2017-09-15T18:48:23.986Z,97.60
2017-09-15T18:50:50.348Z,97.40
2017-09-15T18:53:18.352Z,97.60
2017-09-15T18:55:44.653Z,97.50
2017-09-15T18:58:10.951Z,97.90
2017-09-15T19:00:37.296Z,98.20
2017-09-15T19:03:04.441Z,98.30
2017-09-15T19:05:31.540Z,98.40
2017-09-15T19:07:58.079Z,98.40
2017-09-15T19:10:24.430Z,98.50
2017-09-15T19:12:50.838Z,98.80
2017-09-15T19:15:17.169Z,98.60
2017-09-15T19:17:43.476Z,98.30
2017-09-15T19:20:09.858Z,98.00
2017-09-15T19:22:36.161Z,98.20
2017-09-15T19:25:02.488Z,98.20
2017-09-15T19:27:28.808Z,98.00
2017-09-15T19:29:55.201Z,98.20
2017-09-15T19:32:22.326Z,98.30
2017-09-15T19:34:50.134Z,98.10
2017-09-15T19:37:16.521Z,98.10
2017-09-15T19:39:42.829Z,98.10
2017-09-15T19:42:09.140Z,98.30
2017-09-15T19:44:35.474Z,98.30
2017-09-15T19:47:01.804Z,98.30
2017-09-15T19:49:28.138Z,98.20
2017-09-15T19:51:54.484Z,98.20
2017-09-15T19:54:20.772Z,98.50
2017-09-15T19:56:47.856Z,98.40
2017-09-15T19:59:14.234Z,98.30
2017-09-15T20:01:41.322Z,98.90
2017-09-15T20:04:07.634Z,98.90
2017-09-15T20:06:34.288Z,99.20
2017-09-15T20:09:00.581Z,99.40
2017-09-15T20:11:27.664Z,99.00
2017-09-15T20:13:54.000Z,99.00
2017-09-15T20:16:20.305Z,99.30
2017-09-15T20:18:47.364Z,99.60
2017-09-15T20:21:13.697Z,99.50
2017-09-15T20:23:40.187Z,99.90
2017-09-15T20:26:06.564Z,99.90
2017-09-15T20:28:33.088Z,99.90
2017-09-15T20:30:59.547Z,99.90
2017-09-15T20:33:25.920Z,99.90
2017-09-15T20:35:52.253Z,99.90
2017-09-15T20:38:18.605Z,99.90
2017-09-15T20:40:45.712Z,99.90
2017-09-15T20:43:12.203Z,99.90
2017-09-15T20:45:39.081Z,99.90
2017-09-15T20:48:06.892Z,99.90
2017-09-15T20:50:34.155Z,99.90
2017-09-15T20:53:01.218Z,99.90
2017-09-15T20:55:27.560Z,99.90
2017-09-15T20:57:53.947Z,99.90
2017-09-15T21:00:22.093Z,99.90
2017-09-15T21:02:48.455Z,99.90
2017-09-15T21:05:15.674Z,99.90
2017-09-15T21:07:42.087Z,99.90
2017-09-15T21:10:08.408Z,99.90
2017-09-15T21:12:34.739Z,99.90
2017-09-15T21:15:01.057Z,99.90
2017-09-15T21:17:27.364Z,99.90
2017-09-15T21:19:54.592Z,99.90
2017-09-15T21:22:21.046Z,99.90
2017-09-15T21:24:48.264Z,99.90
2017-09-15T21:27:14.647Z,99.90
2017-09-15T21:29:40.977Z,99.90
2017-09-15T21:32:07.301Z,99.90
2017-09-15T21:34:33.591Z,99.90
2017-09-15T21:36:59.929Z,99.90
2017-09-15T21:39:26.262Z,99.90
2017-09-15T21:41:52.612Z,99.90
2017-09-15T21:44:19.682Z,99.90
2017-09-15T21:46:46.001Z,99.90
2017-09-15T21:49:13.038Z,99.90
2017-09-15T21:51:40.324Z,99.90
2017-09-15T21:54:06.760Z,99.90
2017-09-15T21:56:33.841Z,99.90
2017-09-15T21:59:00.373Z,99.90
2017-09-15T22:01:26.679Z,99.90
2017-09-15T22:03:59.027Z,99.90
2017-09-15T22:06:25.324Z,99.90
2017-09-15T22:08:51.717Z,99.90
2017-09-15T22:11:18.064Z,99.90
2017-09-15T22:13:44.427Z,99.90
2017-09-15T22:16:11.479Z,99.90
2017-09-15T22:18:38.575Z,99.90
2017-09-15T22:21:04.879Z,99.90
2017-09-15T22:23:31.176Z,99.90
2017-09-15T22:25:57.493Z,99.90
2017-09-15T22:28:23.836Z,99.90
2017-09-15T22:30:50.124Z,99.90
2017-09-15T22:33:16.452Z,99.90
2017-09-15T22:35:42.773Z,99.90
2017-09-15T22:38:09.085Z,99.90
2017-09-15T22:40:35.549Z,99.90
2017-09-15T22:43:02.029Z,99.90
2017-09-15T22:45:29.123Z,99.90
2017-09-15T22:47:55.488Z,99.90
2017-09-15T22:50:21.824Z,99.90
2017-09-15T22:52:48.155Z,99.90
2017-09-15T22:55:14.462Z,99.90
2017-09-15T22:57:41.029Z,99.90
2017-09-15T23:00:07.320Z,99.90
2017-09-15T23:02:33.665Z,99.90
2017-09-15T23:04:59.971Z,99.90
2017-09-15T23:07:26.277Z,99.90
2017-09-15T23:09:52.617Z,99.90
2017-09-15T23:12:18.953Z,99.90
2017-09-15T23:14:45.274Z,99.90
2017-09-15T23:17:11.713Z,99.90
2017-09-15T23:19:38.029Z,99.90
2017-09-15T23:22:04.356Z,99.90
2017-09-15T23:24:30.672Z,99.90
2017-09-15T23:26:57.723Z,99.90
2017-09-15T23:29:24.782Z,99.90
2017-09-15T23:31:51.127Z,99.90
2017-09-15T23:34:17.420Z,99.90
2017-09-15T23:36:44.535Z,99.90
2017-09-15T23:39:10.840Z,99.90
2017-09-15T23:41:37.156Z,99.90
2017-09-15T23:44:03.529Z,99.90
2017-09-15T23:46:29.968Z,99.90
2017-09-15T23:48:56.295Z,99.90
2017-09-15T23:51:22.600Z,99.90
2017-09-15T23:53:48.919Z,99.90
2017-09-15T23:56:15.230Z,99.90
2017-09-15T23:58:41.598Z,99.90
